sensor_id;sensor_type;location;lat;lon;timestamp;P1;durP1;ratioP1;P2;durP2;ratioP2
59788;SDS011;47353;51.614;5.530;2023-10-08T00:01:34;11.50;;;5.30;;
59788;SDS011;47353;51.614;5.530;2023-10-08T00:04:00;9.75;;;4.70;;
59788;SDS011;47353;51.614;5.530;2023-10-08T00:06:29;9.65;;;5.00;;
59788;SDS011;47353;51.614;5.530;2023-10-08T00:08:55;7.53;;;4.18;;
59788;SDS011;47353;51.614;5.530;2023-10-08T00:11:25;10.30;;;4.88;;
59788;SDS011;47353;51.614;5.530;2023-10-08T00:13:51;10.43;;;4.85;;
59788;SDS011;47353;51.614;5.530;2023-10-08T00:16:21;9.98;;;4.57;;
59788;SDS011;47353;51.614;5.530;2023-10-08T00:18:47;10.57;;;5.07;;
59788;SDS011;47353;51.614;5.530;2023-10-08T00:21:15;7.28;;;4.25;;
59788;SDS011;47353;51.614;5.530;2023-10-08T00:23:45;9.05;;;4.90;;
59788;SDS011;47353;51.614;5.530;2023-10-08T00:26:18;9.30;;;4.30;;
59788;SDS011;47353;51.614;5.530;2023-10-08T00:28:52;10.43;;;5.07;;
59788;SDS011;47353;51.614;5.530;2023-10-08T00:31:19;10.30;;;5.00;;
59788;SDS011;47353;51.614;5.530;2023-10-08T00:33:44;9.23;;;4.20;;
59788;SDS011;47353;51.614;5.530;2023-10-08T00:36:10;9.52;;;5.05;;
59788;SDS011;47353;51.614;5.530;2023-10-08T00:38:48;9.82;;;4.53;;
59788;SDS011;47353;51.614;5.530;2023-10-08T00:41:23;9.35;;;5.03;;
59788;SDS011;47353;51.614;5.530;2023-10-08T00:43:53;9.15;;;4.80;;
59788;SDS011;47353;51.614;5.530;2023-10-08T00:46:21;8.90;;;4.63;;
59788;SDS011;47353;51.614;5.530;2023-10-08T00:49:13;8.95;;;4.80;;
59788;SDS011;47353;51.614;5.530;2023-10-08T00:51:46;9.50;;;4.97;;
59788;SDS011;47353;51.614;5.530;2023-10-08T00:54:12;10.40;;;4.70;;
59788;SDS011;47353;51.614;5.530;2023-10-08T00:56:42;10.48;;;5.18;;
59788;SDS011;47353;51.614;5.530;2023-10-08T00:59:14;11.05;;;5.40;;
59788;SDS011;47353;51.614;5.530;2023-10-08T01:01:43;10.63;;;5.47;;
59788;SDS011;47353;51.614;5.530;2023-10-08T01:04:20;7.45;;;4.55;;
59788;SDS011;47353;51.614;5.530;2023-10-08T01:06:54;8.68;;;4.68;;
59788;SDS011;47353;51.614;5.530;2023-10-08T01:09:26;9.70;;;5.20;;
59788;SDS011;47353;51.614;5.530;2023-10-08T01:14:40;11.48;;;5.25;;
59788;SDS011;47353;51.614;5.530;2023-10-08T01:17:08;10.18;;;5.35;;
59788;SDS011;47353;51.614;5.530;2023-10-08T01:19:34;9.50;;;4.80;;
59788;SDS011;47353;51.614;5.530;2023-10-08T01:22:06;10.05;;;5.25;;
59788;SDS011;47353;51.614;5.530;2023-10-08T01:24:42;11.75;;;5.55;;
59788;SDS011;47353;51.614;5.530;2023-10-08T01:27:08;11.45;;;5.28;;
59788;SDS011;47353;51.614;5.530;2023-10-08T01:29:36;10.13;;;4.55;;
59788;SDS011;47353;51.614;5.530;2023-10-08T01:32:03;12.80;;;5.63;;
59788;SDS011;47353;51.614;5.530;2023-10-08T01:34:34;11.27;;;5.32;;
59788;SDS011;47353;51.614;5.530;2023-10-08T01:37:01;9.65;;;4.47;;
59788;SDS011;47353;51.614;5.530;2023-10-08T01:39:33;9.95;;;5.28;;
59788;SDS011;47353;51.614;5.530;2023-10-08T01:42:00;11.13;;;4.90;;
59788;SDS011;47353;51.614;5.530;2023-10-08T01:44:25;10.02;;;5.05;;
59788;SDS011;47353;51.614;5.530;2023-10-08T01:46:51;9.48;;;4.68;;
59788;SDS011;47353;51.614;5.530;2023-10-08T01:49:17;15.20;;;5.18;;
59788;SDS011;47353;51.614;5.530;2023-10-08T01:51:47;12.68;;;5.00;;
59788;SDS011;47353;51.614;5.530;2023-10-08T01:54:13;9.55;;;4.93;;
59788;SDS011;47353;51.614;5.530;2023-10-08T01:59:11;10.55;;;4.90;;
59788;SDS011;47353;51.614;5.530;2023-10-08T02:01:42;13.38;;;6.50;;
59788;SDS011;47353;51.614;5.530;2023-10-08T02:04:10;10.52;;;5.40;;
59788;SDS011;47353;51.614;5.530;2023-10-08T02:06:37;12.82;;;6.15;;
59788;SDS011;47353;51.614;5.530;2023-10-08T02:09:05;8.48;;;5.28;;
59788;SDS011;47353;51.614;5.530;2023-10-08T02:16:56;12.38;;;5.90;;
59788;SDS011;47353;51.614;5.530;2023-10-08T02:19:26;13.50;;;5.63;;
59788;SDS011;47353;51.614;5.530;2023-10-08T02:21:55;11.40;;;5.55;;
59788;SDS011;47353;51.614;5.530;2023-10-08T02:24:22;11.77;;;5.43;;
59788;SDS011;47353;51.614;5.530;2023-10-08T02:26:49;13.68;;;6.38;;
59788;SDS011;47353;51.614;5.530;2023-10-08T02:29:16;13.70;;;5.82;;
59788;SDS011;47353;51.614;5.530;2023-10-08T02:31:41;13.18;;;5.82;;
59788;SDS011;47353;51.614;5.530;2023-10-08T02:34:08;11.90;;;5.53;;
59788;SDS011;47353;51.614;5.530;2023-10-08T02:36:35;13.80;;;5.40;;
59788;SDS011;47353;51.614;5.530;2023-10-08T02:39:05;12.55;;;5.82;;
59788;SDS011;47353;51.614;5.530;2023-10-08T02:44:06;8.75;;;5.40;;
59788;SDS011;47353;51.614;5.530;2023-10-08T02:46:32;12.13;;;5.88;;
59788;SDS011;47353;51.614;5.530;2023-10-08T02:48:58;12.82;;;6.53;;
59788;SDS011;47353;51.614;5.530;2023-10-08T02:51:23;15.05;;;7.07;;
59788;SDS011;47353;51.614;5.530;2023-10-08T02:53:49;16.65;;;8.15;;
59788;SDS011;47353;51.614;5.530;2023-10-08T02:56:15;20.83;;;8.63;;
59788;SDS011;47353;51.614;5.530;2023-10-08T02:58:41;17.98;;;8.50;;
59788;SDS011;47353;51.614;5.530;2023-10-08T03:01:09;18.38;;;7.90;;
59788;SDS011;47353;51.614;5.530;2023-10-08T03:03:40;14.85;;;7.40;;
59788;SDS011;47353;51.614;5.530;2023-10-08T03:06:11;14.13;;;7.05;;
59788;SDS011;47353;51.614;5.530;2023-10-08T03:08:39;10.52;;;6.07;;
59788;SDS011;47353;51.614;5.530;2023-10-08T03:11:08;12.07;;;6.32;;
59788;SDS011;47353;51.614;5.530;2023-10-08T03:13:45;12.35;;;6.63;;
59788;SDS011;47353;51.614;5.530;2023-10-08T03:16:16;15.02;;;6.05;;
59788;SDS011;47353;51.614;5.530;2023-10-08T03:18:46;11.20;;;6.13;;
59788;SDS011;47353;51.614;5.530;2023-10-08T03:21:15;14.07;;;6.10;;
59788;SDS011;47353;51.614;5.530;2023-10-08T03:24:01;12.60;;;6.13;;
59788;SDS011;47353;51.614;5.530;2023-10-08T03:26:31;12.77;;;6.22;;
59788;SDS011;47353;51.614;5.530;2023-10-08T03:28:57;10.10;;;5.97;;
59788;SDS011;47353;51.614;5.530;2023-10-08T03:31:25;11.95;;;6.28;;
59788;SDS011;47353;51.614;5.530;2023-10-08T03:34:11;8.52;;;5.32;;
59788;SDS011;47353;51.614;5.530;2023-10-08T03:36:40;10.60;;;5.57;;
59788;SDS011;47353;51.614;5.530;2023-10-08T03:39:13;8.98;;;5.60;;
59788;SDS011;47353;51.614;5.530;2023-10-08T03:41:42;11.85;;;6.20;;
59788;SDS011;47353;51.614;5.530;2023-10-08T03:44:16;13.27;;;6.18;;
59788;SDS011;47353;51.614;5.530;2023-10-08T03:46:42;9.52;;;5.65;;
59788;SDS011;47353;51.614;5.530;2023-10-08T03:49:08;10.00;;;5.90;;
59788;SDS011;47353;51.614;5.530;2023-10-08T03:52:00;12.65;;;6.40;;
59788;SDS011;47353;51.614;5.530;2023-10-08T03:54:25;9.63;;;5.68;;
59788;SDS011;47353;51.614;5.530;2023-10-08T03:57:00;9.68;;;5.45;;
59788;SDS011;47353;51.614;5.530;2023-10-08T03:59:31;11.18;;;5.95;;
59788;SDS011;47353;51.614;5.530;2023-10-08T04:01:59;10.52;;;6.50;;
59788;SDS011;47353;51.614;5.530;2023-10-08T04:04:38;10.13;;;6.15;;
59788;SDS011;47353;51.614;5.530;2023-10-08T04:07:22;11.00;;;5.72;;
59788;SDS011;47353;51.614;5.530;2023-10-08T04:09:57;12.02;;;6.40;;
59788;SDS011;47353;51.614;5.530;2023-10-08T04:12:36;10.10;;;6.13;;
59788;SDS011;47353;51.614;5.530;2023-10-08T04:15:09;11.25;;;6.38;;
59788;SDS011;47353;51.614;5.530;2023-10-08T04:17:37;11.95;;;6.60;;
59788;SDS011;47353;51.614;5.530;2023-10-08T04:20:10;11.55;;;6.40;;
59788;SDS011;47353;51.614;5.530;2023-10-08T04:23:00;11.50;;;6.30;;
59788;SDS011;47353;51.614;5.530;2023-10-08T04:25:27;11.52;;;6.47;;
59788;SDS011;47353;51.614;5.530;2023-10-08T04:27:55;12.45;;;6.38;;
59788;SDS011;47353;51.614;5.530;2023-10-08T04:30:32;11.77;;;6.70;;
59788;SDS011;47353;51.614;5.530;2023-10-08T04:33:01;11.50;;;6.28;;
59788;SDS011;47353;51.614;5.530;2023-10-08T04:35:38;13.93;;;6.45;;
59788;SDS011;47353;51.614;5.530;2023-10-08T04:38:24;11.02;;;6.28;;
59788;SDS011;47353;51.614;5.530;2023-10-08T04:40:51;13.23;;;7.03;;
59788;SDS011;47353;51.614;5.530;2023-10-08T04:43:19;13.10;;;6.85;;
59788;SDS011;47353;51.614;5.530;2023-10-08T04:45:59;12.35;;;6.47;;
59788;SDS011;47353;51.614;5.530;2023-10-08T04:48:47;14.00;;;7.70;;
59788;SDS011;47353;51.614;5.530;2023-10-08T04:51:23;15.27;;;7.45;;
59788;SDS011;47353;51.614;5.530;2023-10-08T04:53:49;13.93;;;7.70;;
59788;SDS011;47353;51.614;5.530;2023-10-08T04:56:14;12.80;;;6.65;;
59788;SDS011;47353;51.614;5.530;2023-10-08T04:58:47;17.25;;;8.50;;
59788;SDS011;47353;51.614;5.530;2023-10-08T05:01:13;15.95;;;8.57;;
59788;SDS011;47353;51.614;5.530;2023-10-08T05:03:46;18.65;;;9.13;;
59788;SDS011;47353;51.614;5.530;2023-10-08T05:06:31;16.23;;;9.13;;
59788;SDS011;47353;51.614;5.530;2023-10-08T05:09:04;19.52;;;9.80;;
59788;SDS011;47353;51.614;5.530;2023-10-08T05:11:37;16.63;;;8.05;;
59788;SDS011;47353;51.614;5.530;2023-10-08T05:14:15;16.90;;;8.57;;
59788;SDS011;47353;51.614;5.530;2023-10-08T05:16:55;18.98;;;8.13;;
59788;SDS011;47353;51.614;5.530;2023-10-08T05:19:48;15.85;;;8.38;;
59788;SDS011;47353;51.614;5.530;2023-10-08T05:22:33;15.50;;;8.35;;
59788;SDS011;47353;51.614;5.530;2023-10-08T05:24:58;16.92;;;8.35;;
59788;SDS011;47353;51.614;5.530;2023-10-08T05:27:42;15.90;;;8.32;;
59788;SDS011;47353;51.614;5.530;2023-10-08T05:30:18;16.33;;;8.55;;
59788;SDS011;47353;51.614;5.530;2023-10-08T05:32:56;16.65;;;7.93;;
59788;SDS011;47353;51.614;5.530;2023-10-08T05:35:35;14.20;;;7.88;;
59788;SDS011;47353;51.614;5.530;2023-10-08T05:38:07;13.40;;;7.95;;
59788;SDS011;47353;51.614;5.530;2023-10-08T05:41:03;14.05;;;8.00;;
59788;SDS011;47353;51.614;5.530;2023-10-08T05:43:37;11.93;;;8.00;;
59788;SDS011;47353;51.614;5.530;2023-10-08T05:46:09;16.70;;;8.57;;
59788;SDS011;47353;51.614;5.530;2023-10-08T05:48:48;9.90;;;7.30;;
59788;SDS011;47353;51.614;5.530;2023-10-08T05:51:36;12.20;;;7.07;;
59788;SDS011;47353;51.614;5.530;2023-10-08T05:54:29;13.25;;;7.53;;
59788;SDS011;47353;51.614;5.530;2023-10-08T05:57:04;11.32;;;7.38;;
59788;SDS011;47353;51.614;5.530;2023-10-08T05:59:37;12.13;;;7.82;;
59788;SDS011;47353;51.614;5.530;2023-10-08T06:02:17;12.05;;;6.70;;
59788;SDS011;47353;51.614;5.530;2023-10-08T06:04:52;9.65;;;6.45;;
59788;SDS011;47353;51.614;5.530;2023-10-08T06:07:43;11.63;;;7.30;;
59788;SDS011;47353;51.614;5.530;2023-10-08T06:10:37;11.38;;;7.40;;
59788;SDS011;47353;51.614;5.530;2023-10-08T06:13:04;13.63;;;7.70;;
59788;SDS011;47353;51.614;5.530;2023-10-08T06:18:16;11.27;;;7.03;;
59788;SDS011;47353;51.614;5.530;2023-10-08T06:20:43;9.02;;;6.65;;
59788;SDS011;47353;51.614;5.530;2023-10-08T06:23:14;13.90;;;8.07;;
59788;SDS011;47353;51.614;5.530;2023-10-08T06:25:43;11.80;;;7.28;;
59788;SDS011;47353;51.614;5.530;2023-10-08T06:28:13;12.60;;;7.05;;
59788;SDS011;47353;51.614;5.530;2023-10-08T06:30:40;13.13;;;7.38;;
59788;SDS011;47353;51.614;5.530;2023-10-08T06:33:09;15.63;;;8.32;;
59788;SDS011;47353;51.614;5.530;2023-10-08T06:35:35;12.18;;;7.57;;
59788;SDS011;47353;51.614;5.530;2023-10-08T06:38:01;13.75;;;8.23;;
59788;SDS011;47353;51.614;5.530;2023-10-08T06:43:03;15.93;;;7.70;;
59788;SDS011;47353;51.614;5.530;2023-10-08T06:45:41;12.25;;;7.60;;
59788;SDS011;47353;51.614;5.530;2023-10-08T06:48:08;12.77;;;7.28;;
59788;SDS011;47353;51.614;5.530;2023-10-08T06:50:33;10.95;;;6.72;;
59788;SDS011;47353;51.614;5.530;2023-10-08T06:53:04;13.73;;;8.00;;
59788;SDS011;47353;51.614;5.530;2023-10-08T06:55:35;13.18;;;8.20;;
59788;SDS011;47353;51.614;5.530;2023-10-08T06:58:01;14.18;;;8.57;;
59788;SDS011;47353;51.614;5.530;2023-10-08T07:00:34;11.60;;;7.20;;
59788;SDS011;47353;51.614;5.530;2023-10-08T07:03:03;9.55;;;5.50;;
59788;SDS011;47353;51.614;5.530;2023-10-08T07:05:29;6.78;;;4.95;;
59788;SDS011;47353;51.614;5.530;2023-10-08T07:07:54;6.90;;;5.00;;
59788;SDS011;47353;51.614;5.530;2023-10-08T07:10:20;5.90;;;4.22;;
59788;SDS011;47353;51.614;5.530;2023-10-08T07:12:48;5.80;;;3.80;;
59788;SDS011;47353;51.614;5.530;2023-10-08T07:15:15;4.80;;;3.78;;
59788;SDS011;47353;51.614;5.530;2023-10-08T07:17:45;5.60;;;3.78;;
59788;SDS011;47353;51.614;5.530;2023-10-08T07:20:11;6.55;;;4.05;;
59788;SDS011;47353;51.614;5.530;2023-10-08T07:22:39;8.77;;;5.32;;
59788;SDS011;47353;51.614;5.530;2023-10-08T07:25:08;6.95;;;4.78;;
59788;SDS011;47353;51.614;5.530;2023-10-08T07:27:34;6.88;;;4.43;;
59788;SDS011;47353;51.614;5.530;2023-10-08T07:30:05;8.18;;;5.30;;
59788;SDS011;47353;51.614;5.530;2023-10-08T07:32:35;6.47;;;4.55;;
59788;SDS011;47353;51.614;5.530;2023-10-08T07:35:03;6.05;;;3.80;;
59788;SDS011;47353;51.614;5.530;2023-10-08T07:37:49;4.53;;;3.50;;
59788;SDS011;47353;51.614;5.530;2023-10-08T07:40:16;4.85;;;3.50;;
59788;SDS011;47353;51.614;5.530;2023-10-08T07:42:42;5.00;;;3.33;;
59788;SDS011;47353;51.614;5.530;2023-10-08T07:45:09;14.70;;;7.40;;
59788;SDS011;47353;51.614;5.530;2023-10-08T07:47:35;9.90;;;5.80;;
59788;SDS011;47353;51.614;5.530;2023-10-08T07:50:00;9.85;;;6.20;;
59788;SDS011;47353;51.614;5.530;2023-10-08T07:52:26;8.32;;;5.82;;
59788;SDS011;47353;51.614;5.530;2023-10-08T07:54:51;7.03;;;5.78;;
59788;SDS011;47353;51.614;5.530;2023-10-08T07:57:18;7.13;;;5.07;;
59788;SDS011;47353;51.614;5.530;2023-10-08T07:59:52;8.68;;;5.63;;
59788;SDS011;47353;51.614;5.530;2023-10-08T08:02:26;9.25;;;6.85;;
59788;SDS011;47353;51.614;5.530;2023-10-08T08:04:53;12.68;;;7.15;;
59788;SDS011;47353;51.614;5.530;2023-10-08T08:07:19;9.55;;;6.10;;
59788;SDS011;47353;51.614;5.530;2023-10-08T08:09:45;7.63;;;5.85;;
59788;SDS011;47353;51.614;5.530;2023-10-08T08:12:23;8.95;;;5.90;;
59788;SDS011;47353;51.614;5.530;2023-10-08T08:14:53;8.77;;;5.78;;
59788;SDS011;47353;51.614;5.530;2023-10-08T08:17:20;7.75;;;5.60;;
59788;SDS011;47353;51.614;5.530;2023-10-08T08:19:47;9.90;;;6.70;;
59788;SDS011;47353;51.614;5.530;2023-10-08T08:22:17;8.27;;;5.93;;
59788;SDS011;47353;51.614;5.530;2023-10-08T08:24:50;12.25;;;7.43;;
59788;SDS011;47353;51.614;5.530;2023-10-08T08:27:40;10.13;;;6.40;;
59788;SDS011;47353;51.614;5.530;2023-10-08T08:30:14;7.63;;;5.60;;
59788;SDS011;47353;51.614;5.530;2023-10-08T08:32:44;11.85;;;6.78;;
59788;SDS011;47353;51.614;5.530;2023-10-08T08:35:12;8.55;;;5.32;;
59788;SDS011;47353;51.614;5.530;2023-10-08T08:37:41;10.25;;;6.07;;
59788;SDS011;47353;51.614;5.530;2023-10-08T08:42:52;14.88;;;8.35;;
59788;SDS011;47353;51.614;5.530;2023-10-08T08:45:19;13.13;;;7.40;;
59788;SDS011;47353;51.614;5.530;2023-10-08T08:47:46;10.15;;;6.47;;
59788;SDS011;47353;51.614;5.530;2023-10-08T08:50:12;16.42;;;8.43;;
59788;SDS011;47353;51.614;5.530;2023-10-08T08:52:38;11.95;;;7.50;;
59788;SDS011;47353;51.614;5.530;2023-10-08T08:55:05;16.25;;;8.30;;
59788;SDS011;47353;51.614;5.530;2023-10-08T08:57:35;14.10;;;8.48;;
59788;SDS011;47353;51.614;5.530;2023-10-08T09:00:05;14.20;;;8.80;;
59788;SDS011;47353;51.614;5.530;2023-10-08T09:02:39;15.18;;;9.05;;
59788;SDS011;47353;51.614;5.530;2023-10-08T09:08:14;17.63;;;9.82;;
59788;SDS011;47353;51.614;5.530;2023-10-08T09:10:43;14.38;;;8.50;;
59788;SDS011;47353;51.614;5.530;2023-10-08T09:13:20;20.65;;;10.43;;
59788;SDS011;47353;51.614;5.530;2023-10-08T09:15:48;16.98;;;9.45;;
59788;SDS011;47353;51.614;5.530;2023-10-08T09:18:16;15.25;;;8.70;;
59788;SDS011;47353;51.614;5.530;2023-10-08T09:20:42;17.55;;;8.68;;
59788;SDS011;47353;51.614;5.530;2023-10-08T09:23:12;11.40;;;7.30;;
59788;SDS011;47353;51.614;5.530;2023-10-08T09:25:39;12.63;;;6.95;;
59788;SDS011;47353;51.614;5.530;2023-10-08T09:28:05;16.23;;;7.93;;
59788;SDS011;47353;51.614;5.530;2023-10-08T09:30:34;17.27;;;8.63;;
59788;SDS011;47353;51.614;5.530;2023-10-08T09:33:08;17.77;;;7.70;;
59788;SDS011;47353;51.614;5.530;2023-10-08T09:35:35;12.75;;;6.97;;
59788;SDS011;47353;51.614;5.530;2023-10-08T09:38:05;11.50;;;6.55;;
59788;SDS011;47353;51.614;5.530;2023-10-08T09:40:41;9.88;;;5.68;;
59788;SDS011;47353;51.614;5.530;2023-10-08T09:43:11;17.83;;;7.80;;
59788;SDS011;47353;51.614;5.530;2023-10-08T09:45:41;14.98;;;7.10;;
59788;SDS011;47353;51.614;5.530;2023-10-08T09:48:12;13.60;;;7.60;;
59788;SDS011;47353;51.614;5.530;2023-10-08T09:50:41;12.02;;;6.72;;
59788;SDS011;47353;51.614;5.530;2023-10-08T09:53:08;15.77;;;7.57;;
59788;SDS011;47353;51.614;5.530;2023-10-08T09:55:53;12.10;;;6.82;;
59788;SDS011;47353;51.614;5.530;2023-10-08T09:58:24;13.70;;;7.40;;
59788;SDS011;47353;51.614;5.530;2023-10-08T10:00:51;10.93;;;6.82;;
59788;SDS011;47353;51.614;5.530;2023-10-08T10:03:19;15.23;;;8.75;;
59788;SDS011;47353;51.614;5.530;2023-10-08T10:05:47;13.98;;;7.47;;
59788;SDS011;47353;51.614;5.530;2023-10-08T10:08:15;12.00;;;6.57;;
59788;SDS011;47353;51.614;5.530;2023-10-08T10:10:40;10.93;;;7.35;;
59788;SDS011;47353;51.614;5.530;2023-10-08T10:13:12;8.60;;;5.57;;
59788;SDS011;47353;51.614;5.530;2023-10-08T10:15:39;10.63;;;6.78;;
59788;SDS011;47353;51.614;5.530;2023-10-08T10:18:12;10.75;;;6.63;;
59788;SDS011;47353;51.614;5.530;2023-10-08T10:20:44;7.10;;;5.18;;
59788;SDS011;47353;51.614;5.530;2023-10-08T10:26:02;9.32;;;6.03;;
59788;SDS011;47353;51.614;5.530;2023-10-08T10:28:29;9.18;;;6.50;;
59788;SDS011;47353;51.614;5.530;2023-10-08T10:30:55;10.55;;;6.80;;
59788;SDS011;47353;51.614;5.530;2023-10-08T10:33:31;11.30;;;7.35;;
59788;SDS011;47353;51.614;5.530;2023-10-08T10:36:00;10.82;;;6.90;;
59788;SDS011;47353;51.614;5.530;2023-10-08T10:38:26;7.43;;;5.18;;
59788;SDS011;47353;51.614;5.530;2023-10-08T10:40:52;8.35;;;5.22;;
59788;SDS011;47353;51.614;5.530;2023-10-08T10:43:26;8.30;;;5.70;;
59788;SDS011;47353;51.614;5.530;2023-10-08T10:46:04;9.02;;;5.07;;
59788;SDS011;47353;51.614;5.530;2023-10-08T10:48:56;7.03;;;4.75;;
59788;SDS011;47353;51.614;5.530;2023-10-08T10:51:40;9.35;;;5.60;;
59788;SDS011;47353;51.614;5.530;2023-10-08T10:54:06;6.68;;;4.75;;
59788;SDS011;47353;51.614;5.530;2023-10-08T10:56:35;8.35;;;4.75;;
59788;SDS011;47353;51.614;5.530;2023-10-08T10:59:07;5.63;;;4.20;;
59788;SDS011;47353;51.614;5.530;2023-10-08T11:01:52;6.07;;;4.35;;
59788;SDS011;47353;51.614;5.530;2023-10-08T11:04:20;6.38;;;3.95;;
59788;SDS011;47353;51.614;5.530;2023-10-08T11:06:53;7.05;;;4.20;;
59788;SDS011;47353;51.614;5.530;2023-10-08T11:09:23;5.72;;;3.80;;
59788;SDS011;47353;51.614;5.530;2023-10-08T11:12:02;4.88;;;3.20;;
59788;SDS011;47353;51.614;5.530;2023-10-08T11:17:08;5.65;;;3.72;;
59788;SDS011;47353;51.614;5.530;2023-10-08T11:19:35;6.28;;;3.72;;
59788;SDS011;47353;51.614;5.530;2023-10-08T11:22:01;8.18;;;4.72;;
59788;SDS011;47353;51.614;5.530;2023-10-08T11:24:30;8.68;;;5.60;;
59788;SDS011;47353;51.614;5.530;2023-10-08T11:26:58;7.05;;;4.47;;
59788;SDS011;47353;51.614;5.530;2023-10-08T11:29:41;7.13;;;5.00;;
59788;SDS011;47353;51.614;5.530;2023-10-08T11:32:07;7.22;;;4.72;;
59788;SDS011;47353;51.614;5.530;2023-10-08T11:34:37;8.20;;;5.30;;
59788;SDS011;47353;51.614;5.530;2023-10-08T11:37:04;8.13;;;5.35;;
59788;SDS011;47353;51.614;5.530;2023-10-08T11:39:44;5.63;;;3.80;;
59788;SDS011;47353;51.614;5.530;2023-10-08T11:42:10;7.90;;;4.55;;
59788;SDS011;47353;51.614;5.530;2023-10-08T11:44:55;8.45;;;5.47;;
59788;SDS011;47353;51.614;5.530;2023-10-08T11:47:20;8.35;;;5.05;;
59788;SDS011;47353;51.614;5.530;2023-10-08T11:49:50;10.20;;;5.35;;
59788;SDS011;47353;51.614;5.530;2023-10-08T11:52:15;7.47;;;4.70;;
59788;SDS011;47353;51.614;5.530;2023-10-08T11:54:44;7.43;;;4.80;;
59788;SDS011;47353;51.614;5.530;2023-10-08T11:57:11;9.93;;;5.72;;
59788;SDS011;47353;51.614;5.530;2023-10-08T11:59:36;8.20;;;4.88;;
59788;SDS011;47353;51.614;5.530;2023-10-08T12:02:05;7.53;;;4.55;;
59788;SDS011;47353;51.614;5.530;2023-10-08T12:04:31;6.25;;;3.92;;
59788;SDS011;47353;51.614;5.530;2023-10-08T12:06:56;7.80;;;5.07;;
59788;SDS011;47353;51.614;5.530;2023-10-08T12:09:22;7.55;;;5.93;;
59788;SDS011;47353;51.614;5.530;2023-10-08T12:11:53;8.73;;;5.68;;
59788;SDS011;47353;51.614;5.530;2023-10-08T12:14:18;8.90;;;5.68;;
59788;SDS011;47353;51.614;5.530;2023-10-08T12:16:44;11.43;;;5.82;;
59788;SDS011;47353;51.614;5.530;2023-10-08T12:19:10;7.50;;;5.47;;
59788;SDS011;47353;51.614;5.530;2023-10-08T12:21:42;4.85;;;3.90;;
59788;SDS011;47353;51.614;5.530;2023-10-08T12:24:11;7.00;;;5.03;;
59788;SDS011;47353;51.614;5.530;2023-10-08T12:26:37;8.30;;;6.82;;
59788;SDS011;47353;51.614;5.530;2023-10-08T12:29:15;7.57;;;6.00;;
59788;SDS011;47353;51.614;5.530;2023-10-08T12:31:42;8.10;;;5.20;;
59788;SDS011;47353;51.614;5.530;2023-10-08T12:34:12;5.97;;;4.38;;
59788;SDS011;47353;51.614;5.530;2023-10-08T12:36:38;5.55;;;4.43;;
59788;SDS011;47353;51.614;5.530;2023-10-08T12:39:04;5.15;;;3.80;;
59788;SDS011;47353;51.614;5.530;2023-10-08T12:41:36;6.05;;;4.60;;
59788;SDS011;47353;51.614;5.530;2023-10-08T12:44:03;4.78;;;4.05;;
59788;SDS011;47353;51.614;5.530;2023-10-08T12:46:32;7.38;;;5.15;;
59788;SDS011;47353;51.614;5.530;2023-10-08T12:48:59;5.38;;;4.18;;
59788;SDS011;47353;51.614;5.530;2023-10-08T12:51:27;5.72;;;4.20;;
59788;SDS011;47353;51.614;5.530;2023-10-08T12:53:57;6.18;;;5.20;;
59788;SDS011;47353;51.614;5.530;2023-10-08T12:56:33;6.35;;;4.53;;
59788;SDS011;47353;51.614;5.530;2023-10-08T12:59:13;6.90;;;4.72;;
59788;SDS011;47353;51.614;5.530;2023-10-08T13:01:46;6.15;;;4.55;;
59788;SDS011;47353;51.614;5.530;2023-10-08T13:04:16;7.35;;;5.10;;
59788;SDS011;47353;51.614;5.530;2023-10-08T13:06:51;6.03;;;5.05;;
59788;SDS011;47353;51.614;5.530;2023-10-08T13:09:21;7.43;;;4.82;;
59788;SDS011;47353;51.614;5.530;2023-10-08T13:11:47;7.45;;;5.55;;
59788;SDS011;47353;51.614;5.530;2023-10-08T13:14:12;8.35;;;5.05;;
59788;SDS011;47353;51.614;5.530;2023-10-08T13:16:38;7.00;;;4.00;;
59788;SDS011;47353;51.614;5.530;2023-10-08T13:19:04;6.10;;;4.60;;
59788;SDS011;47353;51.614;5.530;2023-10-08T13:21:33;8.18;;;5.45;;
59788;SDS011;47353;51.614;5.530;2023-10-08T13:23:58;7.72;;;5.25;;
59788;SDS011;47353;51.614;5.530;2023-10-08T13:26:28;9.18;;;5.53;;
59788;SDS011;47353;51.614;5.530;2023-10-08T13:28:57;8.55;;;5.22;;
59788;SDS011;47353;51.614;5.530;2023-10-08T13:31:23;8.00;;;5.15;;
59788;SDS011;47353;51.614;5.530;2023-10-08T13:33:50;9.85;;;4.63;;
59788;SDS011;47353;51.614;5.530;2023-10-08T13:36:17;6.38;;;4.40;;
59788;SDS011;47353;51.614;5.530;2023-10-08T13:38:43;7.18;;;4.57;;
59788;SDS011;47353;51.614;5.530;2023-10-08T13:41:11;6.18;;;4.35;;
59788;SDS011;47353;51.614;5.530;2023-10-08T13:43:46;9.45;;;5.40;;
59788;SDS011;47353;51.614;5.530;2023-10-08T13:46:20;6.47;;;4.03;;
59788;SDS011;47353;51.614;5.530;2023-10-08T13:48:48;7.85;;;4.47;;
59788;SDS011;47353;51.614;5.530;2023-10-08T13:51:18;5.63;;;3.60;;
59788;SDS011;47353;51.614;5.530;2023-10-08T13:53:51;7.30;;;4.68;;
59788;SDS011;47353;51.614;5.530;2023-10-08T13:56:25;9.48;;;6.40;;
59788;SDS011;47353;51.614;5.530;2023-10-08T13:58:56;6.97;;;4.63;;
59788;SDS011;47353;51.614;5.530;2023-10-08T14:01:51;10.65;;;5.65;;
59788;SDS011;47353;51.614;5.530;2023-10-08T14:04:16;7.28;;;4.43;;
59788;SDS011;47353;51.614;5.530;2023-10-08T14:06:44;9.50;;;5.53;;
59788;SDS011;47353;51.614;5.530;2023-10-08T14:09:16;12.80;;;7.15;;
59788;SDS011;47353;51.614;5.530;2023-10-08T14:11:47;8.68;;;5.93;;
59788;SDS011;47353;51.614;5.530;2023-10-08T14:14:15;6.47;;;4.60;;
59788;SDS011;47353;51.614;5.530;2023-10-08T14:16:42;9.57;;;5.60;;
59788;SDS011;47353;51.614;5.530;2023-10-08T14:19:11;9.50;;;6.65;;
59788;SDS011;47353;51.614;5.530;2023-10-08T14:21:39;7.18;;;5.40;;
59788;SDS011;47353;51.614;5.530;2023-10-08T14:24:18;11.75;;;6.70;;
59788;SDS011;47353;51.614;5.530;2023-10-08T14:26:45;11.15;;;7.45;;
59788;SDS011;47353;51.614;5.530;2023-10-08T14:29:18;14.10;;;8.50;;
59788;SDS011;47353;51.614;5.530;2023-10-08T14:31:43;11.88;;;7.32;;
59788;SDS011;47353;51.614;5.530;2023-10-08T14:34:13;9.90;;;6.13;;
59788;SDS011;47353;51.614;5.530;2023-10-08T14:36:45;8.30;;;5.90;;
59788;SDS011;47353;51.614;5.530;2023-10-08T14:39:33;9.00;;;6.35;;
59788;SDS011;47353;51.614;5.530;2023-10-08T14:42:18;10.00;;;6.20;;
59788;SDS011;47353;51.614;5.530;2023-10-08T14:45:02;8.85;;;5.68;;
59788;SDS011;47353;51.614;5.530;2023-10-08T14:47:28;16.45;;;8.50;;
59788;SDS011;47353;51.614;5.530;2023-10-08T14:49:54;12.85;;;8.65;;
59788;SDS011;47353;51.614;5.530;2023-10-08T14:52:19;12.20;;;8.05;;
59788;SDS011;47353;51.614;5.530;2023-10-08T14:54:45;8.52;;;6.45;;
59788;SDS011;47353;51.614;5.530;2023-10-08T14:57:11;10.75;;;6.68;;
59788;SDS011;47353;51.614;5.530;2023-10-08T14:59:39;8.43;;;5.88;;
59788;SDS011;47353;51.614;5.530;2023-10-08T15:02:06;9.68;;;5.63;;
59788;SDS011;47353;51.614;5.530;2023-10-08T15:04:32;10.70;;;7.10;;
59788;SDS011;47353;51.614;5.530;2023-10-08T15:07:00;10.68;;;6.72;;
59788;SDS011;47353;51.614;5.530;2023-10-08T15:09:26;12.55;;;8.63;;
59788;SDS011;47353;51.614;5.530;2023-10-08T15:11:52;9.55;;;6.90;;
59788;SDS011;47353;51.614;5.530;2023-10-08T15:14:21;10.77;;;7.00;;
59788;SDS011;47353;51.614;5.530;2023-10-08T15:16:49;10.45;;;6.65;;
59788;SDS011;47353;51.614;5.530;2023-10-08T15:19:21;12.98;;;8.23;;
59788;SDS011;47353;51.614;5.530;2023-10-08T15:21:47;9.82;;;7.82;;
59788;SDS011;47353;51.614;5.530;2023-10-08T15:24:20;9.55;;;7.05;;
59788;SDS011;47353;51.614;5.530;2023-10-08T15:26:50;9.70;;;7.38;;
59788;SDS011;47353;51.614;5.530;2023-10-08T15:29:17;12.93;;;8.63;;
59788;SDS011;47353;51.614;5.530;2023-10-08T15:34:16;7.53;;;5.78;;